createdAt,value
2022-07-28T00:00:52.256Z,10.88
2022-07-28T00:03:18.985Z,8.25
2022-07-28T00:05:46.970Z,9.80
2022-07-28T00:08:16.612Z,8.63
2022-07-28T00:10:43.349Z,9.40
2022-07-28T00:13:10.182Z,11.40
2022-07-28T00:15:36.925Z,10.75
2022-07-28T00:18:03.707Z,10.30
2022-07-28T00:20:30.801Z,10.02
2022-07-28T00:22:57.713Z,10.23
2022-07-28T00:25:24.620Z,9.63
2022-07-28T00:27:51.309Z,13.15
2022-07-28T00:30:17.959Z,9.85
2022-07-28T00:32:44.633Z,10.52
2022-07-28T00:35:12.352Z,12.23
2022-07-28T00:37:40.224Z,12.75
2022-07-28T00:40:10.253Z,10.48
2022-07-28T00:42:37.161Z,14.13
2022-07-28T00:45:04.507Z,12.43
2022-07-28T00:47:33.867Z,13.23
2022-07-28T00:50:04.448Z,11.98
2022-07-28T00:52:32.098Z,12.25
2022-07-28T00:54:59.530Z,10.60
2022-07-28T00:57:26.228Z,9.38
2022-07-28T00:59:52.901Z,11.70
2022-07-28T01:02:20.231Z,13.48
2022-07-28T01:04:47.445Z,11.02
2022-07-28T01:07:34.138Z,9.95
2022-07-28T01:10:09.991Z,11.43
2022-07-28T01:12:58.550Z,14.80
2022-07-28T01:15:36.979Z,12.57
2022-07-28T01:18:24.440Z,13.02
2022-07-28T01:20:54.951Z,13.98
2022-07-28T01:23:33.616Z,14.48
2022-07-28T01:26:18.975Z,12.32
2022-07-28T01:29:02.910Z,12.68
2022-07-28T01:31:44.046Z,9.80
2022-07-28T01:34:18.547Z,13.10
2022-07-28T01:36:59.448Z,11.32
2022-07-28T01:39:32.195Z,13.68
2022-07-28T01:42:00.480Z,15.43
2022-07-28T01:44:28.897Z,13.90
2022-07-28T01:46:58.957Z,13.40
2022-07-28T01:49:27.765Z,14.30
2022-07-28T01:51:57.447Z,15.43
2022-07-28T01:54:28.330Z,13.52
2022-07-28T01:56:57.249Z,13.57
2022-07-28T01:59:26.094Z,14.60
2022-07-28T02:01:54.162Z,15.85
2022-07-28T02:04:23.444Z,14.85
2022-07-28T02:06:52.401Z,14.52
2022-07-28T02:09:20.963Z,15.60
2022-07-28T02:11:49.979Z,14.98
2022-07-28T02:14:20.953Z,16.20
2022-07-28T02:16:57.185Z,14.65
2022-07-28T02:19:25.620Z,16.45
2022-07-28T02:21:54.387Z,17.67
2022-07-28T02:24:26.397Z,18.77
2022-07-28T02:27:01.557Z,17.27
2022-07-28T02:29:50.224Z,16.35
2022-07-28T02:32:28.911Z,15.38
2022-07-28T02:35:05.264Z,15.02
2022-07-28T02:37:37.717Z,15.13
2022-07-28T02:40:06.356Z,15.45
2022-07-28T02:42:35.554Z,15.70
2022-07-28T02:45:06.839Z,15.57
2022-07-28T02:47:40.102Z,15.00
2022-07-28T02:50:08.551Z,14.60
2022-07-28T02:52:36.484Z,16.48
2022-07-28T02:55:04.153Z,17.58
2022-07-28T02:57:32.019Z,16.90
2022-07-28T02:59:59.049Z,17.40
2022-07-28T03:02:30.608Z,15.32
2022-07-28T03:05:11.556Z,16.63
2022-07-28T03:07:50.347Z,15.18
2022-07-28T03:10:32.947Z,19.90
2022-07-28T03:13:02.867Z,16.42
2022-07-28T03:15:29.625Z,16.15
2022-07-28T03:17:56.262Z,17.92
2022-07-28T03:20:22.928Z,14.68
2022-07-28T03:22:49.566Z,14.70
2022-07-28T03:25:34.085Z,17.10
2022-07-28T03:28:02.286Z,17.63
2022-07-28T03:30:34.782Z,17.42
2022-07-28T03:33:03.406Z,16.40
2022-07-28T03:35:32.710Z,16.00
2022-07-28T03:38:14.273Z,13.20
2022-07-28T03:40:46.053Z,15.73
2022-07-28T03:43:16.121Z,17.05
2022-07-28T03:45:46.785Z,16.48
2022-07-28T03:48:14.378Z,16.45
2022-07-28T03:50:41.315Z,16.17
2022-07-28T03:53:21.499Z,18.67
2022-07-28T03:55:50.769Z,16.67
2022-07-28T03:58:21.933Z,15.48
2022-07-28T04:00:53.336Z,15.18
2022-07-28T04:03:35.360Z,14.15
2022-07-28T04:06:07.380Z,15.77
2022-07-28T04:08:34.117Z,15.90
2022-07-28T04:11:00.777Z,14.98
2022-07-28T04:13:27.433Z,16.70
2022-07-28T04:15:54.090Z,14.63
2022-07-28T04:18:20.729Z,14.80
2022-07-28T04:20:47.406Z,15.13
2022-07-28T04:23:14.093Z,14.88
2022-07-28T04:25:40.890Z,17.42
2022-07-28T04:28:07.513Z,17.25
2022-07-28T04:30:34.300Z,15.38
2022-07-28T04:33:06.256Z,14.52
2022-07-28T04:35:34.768Z,14.88
2022-07-28T04:38:01.807Z,17.77
2022-07-28T04:40:28.646Z,16.17
2022-07-28T04:42:56.547Z,14.48
2022-07-28T04:45:23.264Z,17.02
2022-07-28T04:47:51.698Z,15.65
2022-07-28T04:50:18.974Z,15.93
2022-07-28T04:52:49.160Z,15.55
2022-07-28T04:55:16.416Z,15.90
2022-07-28T04:57:44.060Z,14.73
2022-07-28T05:00:14.726Z,13.68
2022-07-28T05:02:43.389Z,18.80
2022-07-28T05:05:11.364Z,16.10
2022-07-28T05:07:39.059Z,15.55
2022-07-28T05:10:07.672Z,15.77
2022-07-28T05:12:34.364Z,17.13
2022-07-28T05:15:01.295Z,16.95
2022-07-28T05:17:28.054Z,16.20
2022-07-28T05:19:54.753Z,18.33
2022-07-28T05:22:21.425Z,14.30
2022-07-28T05:24:48.117Z,16.52
2022-07-28T05:27:14.766Z,14.88
2022-07-28T05:29:47.204Z,15.00
2022-07-28T05:32:16.559Z,14.88
2022-07-28T05:34:44.891Z,14.73
2022-07-28T05:37:12.023Z,15.00
2022-07-28T05:39:38.885Z,13.43
2022-07-28T05:42:05.794Z,12.68
2022-07-28T05:44:37.543Z,14.48
2022-07-28T05:47:05.410Z,13.65
2022-07-28T05:49:32.052Z,15.68
2022-07-28T05:51:58.705Z,16.27
2022-07-28T05:54:25.483Z,13.07
2022-07-28T05:56:52.810Z,12.73
2022-07-28T05:59:19.556Z,14.10
2022-07-28T06:01:46.688Z,13.93
2022-07-28T06:04:27.558Z,13.07
2022-07-28T06:06:54.814Z,14.65
2022-07-28T06:09:21.451Z,14.70
2022-07-28T06:11:50.211Z,12.77
2022-07-28T06:14:17.456Z,15.32
2022-07-28T06:16:44.977Z,13.75
2022-07-28T06:19:12.142Z,12.20
2022-07-28T06:21:38.876Z,12.10
2022-07-28T06:24:08.619Z,12.27
2022-07-28T06:26:43.647Z,15.80
2022-07-28T06:29:11.648Z,13.05
2022-07-28T06:31:38.953Z,16.92
2022-07-28T06:34:06.315Z,12.85
2022-07-28T06:36:33.591Z,11.95
2022-07-28T06:39:00.637Z,11.57
2022-07-28T06:41:28.648Z,10.52
2022-07-28T06:43:55.720Z,13.55
2022-07-28T06:46:23.019Z,13.20
2022-07-28T06:48:50.230Z,12.00
2022-07-28T06:51:19.704Z,10.68
2022-07-28T06:53:48.440Z,11.00
2022-07-28T06:56:16.149Z,12.82
2022-07-28T06:58:46.851Z,10.52
2022-07-28T07:01:14.992Z,12.52
2022-07-28T07:03:42.661Z,11.23
2022-07-28T07:06:10.817Z,11.50
2022-07-28T07:08:38.237Z,10.45
2022-07-28T07:11:05.422Z,13.95
2022-07-28T07:13:32.933Z,11.88
2022-07-28T07:16:00.224Z,9.93
2022-07-28T07:18:27.443Z,10.38
2022-07-28T07:20:54.759Z,11.68
2022-07-28T07:23:21.991Z,9.27
2022-07-28T07:25:49.194Z,9.27
2022-07-28T07:28:16.282Z,10.85
2022-07-28T07:30:43.944Z,11.30
2022-07-28T07:33:11.012Z,10.82
2022-07-28T07:35:38.400Z,9.93
2022-07-28T07:38:05.593Z,9.85
2022-07-28T07:40:32.777Z,11.13
2022-07-28T07:42:59.857Z,11.82
2022-07-28T07:45:27.123Z,9.77
2022-07-28T07:47:54.357Z,11.00
2022-07-28T07:50:21.583Z,10.68
2022-07-28T07:52:49.968Z,10.63
2022-07-28T07:55:17.454Z,10.98
2022-07-28T07:57:44.860Z,16.83
2022-07-28T08:00:28.831Z,10.05
2022-07-28T08:02:57.319Z,10.65
2022-07-28T08:05:34.869Z,12.98
2022-07-28T08:08:03.268Z,10.00
2022-07-28T08:10:30.369Z,11.00
2022-07-28T08:12:57.503Z,12.18
2022-07-28T08:15:25.240Z,12.48
2022-07-28T08:17:52.337Z,11.93
2022-07-28T08:20:19.450Z,10.52
2022-07-28T08:22:50.364Z,10.38
2022-07-28T08:25:17.821Z,10.25
2022-07-28T08:27:45.097Z,10.70
2022-07-28T08:30:14.755Z,11.82
2022-07-28T08:32:44.043Z,10.95
2022-07-28T08:35:33.531Z,9.95
2022-07-28T08:38:01.559Z,11.20
2022-07-28T08:40:29.410Z,10.73
2022-07-28T08:43:09.931Z,9.23
2022-07-28T08:45:37.508Z,11.48
2022-07-28T08:48:08.761Z,12.32
2022-07-28T08:50:37.876Z,10.93
2022-07-28T08:53:05.609Z,11.02
2022-07-28T08:55:32.873Z,10.63
2022-07-28T08:58:00.651Z,12.65
2022-07-28T09:00:28.359Z,11.18
2022-07-28T09:02:55.751Z,8.82
2022-07-28T09:05:23.995Z,9.77
2022-07-28T09:07:54.633Z,11.02
2022-07-28T09:10:22.052Z,7.97
2022-07-28T09:12:49.351Z,10.57
2022-07-28T09:15:16.416Z,11.98
2022-07-28T09:17:43.715Z,9.93
2022-07-28T09:20:11.819Z,9.10
2022-07-28T09:22:55.932Z,9.45
2022-07-28T09:25:23.136Z,11.90
2022-07-28T09:27:51.768Z,10.35
2022-07-28T09:30:28.370Z,11.05
2022-07-28T09:33:11.609Z,12.40
2022-07-28T09:35:59.208Z,9.27
2022-07-28T09:38:28.208Z,11.80
2022-07-28T09:41:00.249Z,9.77
2022-07-28T09:43:42.226Z,9.38
2022-07-28T09:46:09.427Z,9.05
2022-07-28T09:48:39.561Z,9.85
2022-07-28T09:51:12.032Z,9.88
2022-07-28T09:53:39.367Z,11.73
2022-07-28T09:56:07.184Z,8.68
2022-07-28T09:58:34.297Z,8.75
2022-07-28T10:01:03.289Z,9.48
2022-07-28T10:03:31.075Z,13.52
2022-07-28T10:05:59.752Z,14.57
2022-07-28T10:08:45.286Z,13.77
2022-07-28T10:11:13.517Z,14.10
2022-07-28T10:13:57.256Z,8.07
2022-07-28T10:16:25.746Z,9.48
2022-07-28T10:18:53.330Z,10.38
2022-07-28T10:21:21.080Z,10.38
2022-07-28T10:23:50.135Z,7.40
2022-07-28T10:26:18.357Z,9.05
2022-07-28T10:28:48.871Z,9.15
2022-07-28T10:31:19.527Z,7.40
2022-07-28T10:33:49.297Z,11.63
2022-07-28T10:36:18.470Z,10.75
2022-07-28T10:38:45.577Z,10.13
2022-07-28T10:41:14.128Z,8.18
2022-07-28T10:43:42.916Z,8.90
2022-07-28T10:46:16.405Z,10.15
2022-07-28T10:48:44.369Z,7.15
2022-07-28T10:51:11.949Z,6.93
2022-07-28T10:53:53.104Z,8.55
2022-07-28T10:56:47.319Z,7.60
2022-07-28T10:59:40.076Z,9.00
2022-07-28T11:02:06.930Z,7.80
2022-07-28T11:04:49.399Z,7.15
2022-07-28T11:07:17.979Z,7.22
2022-07-28T11:09:47.306Z,6.45
2022-07-28T11:12:15.435Z,10.30
2022-07-28T11:14:43.046Z,5.93
2022-07-28T11:17:11.268Z,7.68
2022-07-28T11:20:06.763Z,11.95
2022-07-28T11:22:33.231Z,7.93
2022-07-28T11:25:19.332Z,10.48
2022-07-28T11:27:51.926Z,8.55
2022-07-28T11:30:37.030Z,12.27
2022-07-28T11:33:09.390Z,7.43
2022-07-28T11:35:39.241Z,5.65
2022-07-28T11:38:06.273Z,6.97
2022-07-28T11:40:38.011Z,5.93
2022-07-28T11:43:36.065Z,5.05
2022-07-28T11:46:10.450Z,3.72
2022-07-28T11:48:45.031Z,7.72
2022-07-28T11:51:13.381Z,6.55
2022-07-28T11:53:47.075Z,10.07
2022-07-28T11:56:16.502Z,9.65
2022-07-28T11:58:43.605Z,5.45
2022-07-28T12:01:17.984Z,7.50
2022-07-28T12:03:55.023Z,5.57
2022-07-28T12:06:28.755Z,4.95
2022-07-28T12:09:07.020Z,6.15
2022-07-28T12:11:35.642Z,6.07
2022-07-28T12:14:04.405Z,9.98
2022-07-28T12:16:32.548Z,9.05
2022-07-28T12:19:00.640Z,3.63
2022-07-28T12:21:47.776Z,6.95
2022-07-28T12:24:30.031Z,8.27
2022-07-28T12:27:00.542Z,6.50
2022-07-28T12:29:35.846Z,6.15
2022-07-28T12:32:06.490Z,7.70
2022-07-28T12:34:37.957Z,8.00
2022-07-28T12:37:09.556Z,7.13
2022-07-28T12:39:39.559Z,7.60
2022-07-28T12:42:09.532Z,6.13
2022-07-28T12:44:38.738Z,8.98
2022-07-28T12:47:08.224Z,6.03
2022-07-28T12:49:36.394Z,5.28
2022-07-28T12:52:22.066Z,7.18
2022-07-28T12:54:54.840Z,5.53
2022-07-28T12:57:46.204Z,7.32
2022-07-28T13:00:19.697Z,8.98
2022-07-28T13:02:47.661Z,6.35
2022-07-28T13:05:55.551Z,6.90
2022-07-28T13:08:24.543Z,5.78
2022-07-28T13:10:56.684Z,5.40
2022-07-28T13:13:24.321Z,6.38
2022-07-28T13:16:10.805Z,5.95
2022-07-28T13:18:45.107Z,8.57
2022-07-28T13:21:12.120Z,5.03
2022-07-28T13:23:39.292Z,6.20
2022-07-28T13:26:07.280Z,5.85
2022-07-28T13:28:34.199Z,4.90
2022-07-28T13:31:00.905Z,4.22
2022-07-28T13:33:28.350Z,8.63
2022-07-28T13:35:55.263Z,7.63
2022-07-28T13:38:22.162Z,3.53
2022-07-28T13:40:49.381Z,6.38
2022-07-28T13:43:16.467Z,4.47
2022-07-28T13:45:43.364Z,5.22
2022-07-28T13:48:10.151Z,5.28
2022-07-28T13:50:37.357Z,3.83
2022-07-28T13:53:04.120Z,4.40
2022-07-28T13:55:30.856Z,5.25
2022-07-28T13:57:57.582Z,7.30
2022-07-28T14:00:24.350Z,8.93
2022-07-28T14:02:51.487Z,5.20
2022-07-28T14:05:18.939Z,4.45
2022-07-28T14:07:48.634Z,5.95
2022-07-28T14:10:16.942Z,5.57
2022-07-28T14:12:45.005Z,6.38
2022-07-28T14:15:12.868Z,5.88
2022-07-28T14:17:45.550Z,6.28
2022-07-28T14:20:14.806Z,5.50
2022-07-28T14:22:43.015Z,8.85
2022-07-28T14:25:10.204Z,4.53
2022-07-28T14:27:36.944Z,5.38
2022-07-28T14:30:04.694Z,4.32
2022-07-28T14:32:32.833Z,5.30
2022-07-28T14:34:59.702Z,5.60
2022-07-28T14:37:28.824Z,5.60
2022-07-28T14:39:55.579Z,6.72
2022-07-28T14:42:22.309Z,4.65
2022-07-28T14:44:49.040Z,4.05
2022-07-28T14:47:17.510Z,5.57
2022-07-28T14:49:58.293Z,6.55
2022-07-28T14:52:26.490Z,6.80
2022-07-28T14:54:53.986Z,6.03
2022-07-28T14:57:21.123Z,5.13
2022-07-28T14:59:52.113Z,4.80
2022-07-28T15:02:18.936Z,4.68
2022-07-28T15:04:56.311Z,5.80
2022-07-28T15:07:23.019Z,10.73
2022-07-28T15:09:50.691Z,6.90
2022-07-28T15:12:17.546Z,5.50
2022-07-28T15:14:44.239Z,3.97
2022-07-28T15:17:11.001Z,6.60
2022-07-28T15:19:38.881Z,5.47
2022-07-28T15:22:06.388Z,3.15
2022-07-28T15:24:35.015Z,4.72
2022-07-28T15:27:02.872Z,5.40
2022-07-28T15:29:35.345Z,6.38
2022-07-28T15:32:04.288Z,5.72
2022-07-28T15:34:31.438Z,6.50
2022-07-28T15:36:58.135Z,4.93
2022-07-28T15:39:24.880Z,5.82
2022-07-28T15:41:57.585Z,2.73
2022-07-28T15:44:25.822Z,3.15
2022-07-28T15:46:52.948Z,4.63
2022-07-28T15:49:19.994Z,3.75
2022-07-28T15:51:46.731Z,7.57
2022-07-28T15:54:14.298Z,5.40
2022-07-28T15:56:42.389Z,4.45
2022-07-28T15:59:09.383Z,6.40
2022-07-28T16:01:36.157Z,6.10
2022-07-28T16:04:03.006Z,4.47
2022-07-28T16:06:48.549Z,6.65
2022-07-28T16:09:15.523Z,5.88
2022-07-28T16:11:42.750Z,6.43
2022-07-28T16:14:09.604Z,7.10
2022-07-28T16:16:36.841Z,3.38
2022-07-28T16:19:04.076Z,4.85
2022-07-28T16:21:30.721Z,6.47
2022-07-28T16:23:57.370Z,4.88
2022-07-28T16:26:24.056Z,7.28
2022-07-28T16:28:54.424Z,5.38
2022-07-28T16:31:21.558Z,5.30
2022-07-28T16:33:49.046Z,5.55
2022-07-28T16:36:16.098Z,5.82
2022-07-28T16:38:43.097Z,6.03
2022-07-28T16:41:11.420Z,5.32
2022-07-28T16:43:44.760Z,3.58
2022-07-28T16:46:12.460Z,3.92
2022-07-28T16:48:42.428Z,3.80
2022-07-28T16:51:11.379Z,5.88
2022-07-28T16:53:38.147Z,7.68
2022-07-28T16:56:05.366Z,5.30
2022-07-28T16:58:32.604Z,5.63
2022-07-28T17:00:59.527Z,4.32
2022-07-28T17:03:27.142Z,5.28
2022-07-28T17:05:54.294Z,7.10
2022-07-28T17:08:21.479Z,3.38
2022-07-28T17:10:48.575Z,4.30
2022-07-28T17:13:16.783Z,7.38
2022-07-28T17:15:43.989Z,3.63
2022-07-28T17:18:12.396Z,4.72
2022-07-28T17:20:40.920Z,6.47
2022-07-28T17:23:08.172Z,7.03
2022-07-28T17:25:59.286Z,4.85
2022-07-28T17:28:23.467Z,5.38
2022-07-28T17:30:51.027Z,3.97
2022-07-28T17:33:18.077Z,8.35
2022-07-28T17:35:45.363Z,5.60
2022-07-28T17:38:12.589Z,7.60
2022-07-28T17:40:41.651Z,4.60
2022-07-28T17:43:13.187Z,4.28
2022-07-28T17:45:40.649Z,5.05
2022-07-28T17:48:07.690Z,8.15
2022-07-28T17:50:34.718Z,4.82
2022-07-28T17:53:01.880Z,3.35
2022-07-28T17:55:40.673Z,4.07
2022-07-28T17:58:27.096Z,4.72
2022-07-28T18:01:10.441Z,5.75
2022-07-28T18:03:59.264Z,6.90
2022-07-28T18:06:32.802Z,6.18
2022-07-28T18:09:05.525Z,4.40
2022-07-28T18:11:55.715Z,6.60
2022-07-28T18:14:22.843Z,6.70
2022-07-28T18:16:49.525Z,6.28
2022-07-28T18:19:16.194Z,4.93
2022-07-28T18:21:43.595Z,9.40
2022-07-28T18:24:10.275Z,5.25
2022-07-28T18:26:36.928Z,5.28
2022-07-28T18:29:03.629Z,6.93
2022-07-28T18:31:30.364Z,5.95
2022-07-28T18:33:57.161Z,9.65
2022-07-28T18:36:23.835Z,4.25
2022-07-28T18:38:50.495Z,4.03
2022-07-28T18:41:17.663Z,6.78
2022-07-28T18:43:44.312Z,7.85
2022-07-28T18:46:11.072Z,5.63
2022-07-28T18:48:38.230Z,6.00
2022-07-28T18:51:04.975Z,4.82
2022-07-28T18:53:31.716Z,6.57
2022-07-28T18:55:58.516Z,5.20
2022-07-28T18:58:25.236Z,4.50
2022-07-28T19:00:51.988Z,5.40
2022-07-28T19:03:18.798Z,6.75
2022-07-28T19:05:46.432Z,11.30
2022-07-28T19:08:13.382Z,5.53
2022-07-28T19:10:40.283Z,6.47
2022-07-28T19:13:09.325Z,7.18
2022-07-28T19:15:46.154Z,7.30
2022-07-28T19:18:13.250Z,5.97
2022-07-28T19:20:40.491Z,6.55
2022-07-28T19:23:07.496Z,8.40
2022-07-28T19:25:36.188Z,5.82
2022-07-28T19:28:03.559Z,6.43
2022-07-28T19:30:31.941Z,6.43
2022-07-28T19:32:58.928Z,5.47
2022-07-28T19:35:25.780Z,6.68
2022-07-28T19:37:52.615Z,7.45
2022-07-28T19:40:19.367Z,8.00
2022-07-28T19:42:48.483Z,5.80
2022-07-28T19:45:15.530Z,6.35
2022-07-28T19:47:42.650Z,6.90
2022-07-28T19:50:09.400Z,6.88
2022-07-28T19:52:37.480Z,6.90
2022-07-28T19:55:06.115Z,9.52
2022-07-28T19:57:33.320Z,9.70
2022-07-28T20:00:02.057Z,6.97
2022-07-28T20:02:29.450Z,7.32
2022-07-28T20:04:56.196Z,6.65
2022-07-28T20:07:23.814Z,6.97
2022-07-28T20:09:50.531Z,8.88
2022-07-28T20:12:17.660Z,6.65
2022-07-28T20:14:44.320Z,11.40
2022-07-28T20:17:20.107Z,6.88
2022-07-28T20:19:57.668Z,8.50
2022-07-28T20:22:25.085Z,6.90
2022-07-28T20:24:51.928Z,7.80
2022-07-28T20:27:18.762Z,7.63
2022-07-28T20:29:45.527Z,8.38
2022-07-28T20:32:12.194Z,7.55
2022-07-28T20:34:39.102Z,6.25
2022-07-28T20:37:06.256Z,6.05
2022-07-28T20:39:45.752Z,8.35
2022-07-28T20:42:12.443Z,10.85
2022-07-28T20:44:39.117Z,7.97
2022-07-28T20:47:05.878Z,7.97
2022-07-28T20:49:32.752Z,6.00
2022-07-28T20:51:59.710Z,7.97
2022-07-28T20:54:26.503Z,6.50
2022-07-28T20:56:53.793Z,7.28
2022-07-28T20:59:20.554Z,6.82
2022-07-28T21:01:47.492Z,11.35
2022-07-28T21:04:15.634Z,9.10
2022-07-28T21:06:52.095Z,5.88
2022-07-28T21:09:19.571Z,7.90
2022-07-28T21:11:46.292Z,6.93
2022-07-28T21:14:13.327Z,6.15
2022-07-28T21:16:40.284Z,8.85
2022-07-28T21:19:08.570Z,4.57
2022-07-28T21:21:35.496Z,6.43
2022-07-28T21:24:02.213Z,5.15
2022-07-28T21:26:28.920Z,4.55
2022-07-28T21:29:10.941Z,6.55
2022-07-28T21:32:04.087Z,5.22
2022-07-28T21:34:26.550Z,6.25
2022-07-28T21:36:53.292Z,3.95
2022-07-28T21:39:19.979Z,4.47
2022-07-28T21:41:46.862Z,4.30
2022-07-28T21:44:13.746Z,5.05
2022-07-28T21:46:42.851Z,4.38
2022-07-28T21:49:09.650Z,2.97
2022-07-28T21:51:36.443Z,3.78
2022-07-28T21:54:04.216Z,4.85
2022-07-28T21:56:34.232Z,3.03
2022-07-28T21:59:01.809Z,2.97
2022-07-28T22:01:28.956Z,4.03
2022-07-28T22:03:55.990Z,4.30
2022-07-28T22:06:23.175Z,2.83
2022-07-28T22:08:53.406Z,3.67
2022-07-28T22:11:21.863Z,6.40
2022-07-28T22:13:48.621Z,2.85
2022-07-28T22:16:15.421Z,4.55
2022-07-28T22:18:42.117Z,2.25
2022-07-28T22:21:08.833Z,4.07
2022-07-28T22:23:35.603Z,3.78
2022-07-28T22:26:02.532Z,4.85
2022-07-28T22:28:30.661Z,2.13
2022-07-28T22:30:58.933Z,1.35
2022-07-28T22:33:36.117Z,2.25
2022-07-28T22:36:04.565Z,7.38
2022-07-28T22:38:31.673Z,2.95
2022-07-28T22:40:58.608Z,2.20
2022-07-28T22:43:25.323Z,1.90
2022-07-28T22:45:52.061Z,3.03
2022-07-28T22:48:19.170Z,6.60
2022-07-28T22:50:45.843Z,8.00
2022-07-28T22:53:12.510Z,7.35
2022-07-28T22:55:40.300Z,3.45
2022-07-28T22:58:07.153Z,2.97
2022-07-28T23:00:36.369Z,2.58
2022-07-28T23:03:04.268Z,2.25
2022-07-28T23:05:31.040Z,4.38
2022-07-28T23:07:58.737Z,4.22
2022-07-28T23:10:26.516Z,4.43
2022-07-28T23:12:57.274Z,1.67
2022-07-28T23:15:25.269Z,2.88
2022-07-28T23:18:11.177Z,1.65
2022-07-28T23:20:38.993Z,7.20
2022-07-28T23:23:06.136Z,2.95
2022-07-28T23:25:33.547Z,5.50
2022-07-28T23:28:00.523Z,2.95
2022-07-28T23:30:27.261Z,2.15
2022-07-28T23:32:54.584Z,3.40
2022-07-28T23:35:21.336Z,4.85
2022-07-28T23:37:48.053Z,2.72
2022-07-28T23:40:14.852Z,2.15
2022-07-28T23:42:41.646Z,1.73
2022-07-28T23:45:09.360Z,3.00
2022-07-28T23:47:36.078Z,1.92
2022-07-28T23:50:04.355Z,2.72
2022-07-28T23:52:31.046Z,4.15
2022-07-28T23:54:58.006Z,4.30
2022-07-28T23:57:24.686Z,2.25
2022-07-28T23:59:53.081Z,3.08
